This is the latest recevied weather packets stored in our database for station/object F4MLU-13. If no packets are shown the sender has not sent any weather packets the latest 10 day(s).
| Time | Temp. | Humidity | Pressure | Rain* | Wind** | Luminosity | Snow |
|---|---|---|---|---|---|---|---|
| 1777310149 | 16.11° C | 90% | - | 2.03 mm | - | - | - |
| 1777304719 | 23.33° C | 63% | - | 0 mm | - | - | - |
| 1777304119 | 24.44° C | 58% | - | 0 mm | - | - | - |
| 1777302949 | 24.44° C | 58% | - | 0 mm | - | - | - |
| 1777300519 | 26.11° C | 52% | - | 0 mm | - | - | - |
| 1777295719 | 25.56° C | 55% | - | 0 mm | - | - | - |
| 1777292120 | 25.56° C | 54% | - | 0 mm | - | - | - |
| 1777291520 | 25° C | 55% | - | 0 mm | - | - | - |
| 1777284320 | 22.78° C | 63% | - | 0 mm | - | - | - |
| 1777280720 | 23.33° C | 62% | - | 0 mm | - | - | - |
| 1777277119 | 22.22° C | 67% | - | 0 mm | - | - | - |
| 1777264521 | 13.33° C | 99% | - | 0 mm | - | - | - |
| 1777261561 | 13.33° C | 99% | - | 0 mm | - | - | - |
| 1777257921 | 13.33° C | 99% | - | 0 mm | - | - | - |
| 1777254921 | 13.33° C | 99% | - | 0 mm | - | - | - |
| 1777251321 | 13.89° C | 99% | - | 0 mm | - | - | - |
| 1777250121 | 13.89° C | 99% | - | 0 mm | - | - | - |
| 1777248921 | 13.89° C | 99% | - | 0 mm | - | - | - |
| 1777245921 | 13.33° C | 99% | - | 0 mm | - | - | - |
| 1777243551 | 12.78° C | 98% | - | 0 mm | - | - | - |
| 1777242321 | 13.33° C | 99% | - | 0 mm | - | - | - |
| 1777241121 | 13.33° C | 99% | - | 0 mm | - | - | - |
| 1777239921 | 13.33° C | 99% | - | 0 mm | - | - | - |
| 1777238721 | 12.78° C | 98% | - | 0 mm | - | - | - |
| 1777237521 | 13.33° C | 98% | - | 0 mm | - | - | - |
* Rain latest hour (hover to see other rain measurements)
** Current wind speed in m/s (hover to see current wind gust speed)